PROFILE

 METAR AND TAF INFORMATION
ADDS - METARS form results

(1522 UTC 25 September 2022)
http://aviationweather.gov/metar/data/
 
EICK 251500Z 27009KT 9999 FEW022 BKN032 14/09 Q1021 NOSIG
EICK 251430Z 26009KT 9999 SCT022 BKN032 14/09 Q1021 NOSIG
TAF EICK 251100Z 2512/2612 30009KT 9999 FEW020 BKN030 PROB30 TEMPO 2515/2518 -SHRA BKN012 TEMPO 2522/2603 4500 -RA BKN009 TEMPO 2601/2612 32015G25KT 

 AIRPORT MAP

 RUNWAY INFORMATION
Runway 07 Runway length 4298 ft Runway width 148 ft
Runway elevation 471 ft Runway displaced threshold 0 ft Runway heading 63
Runway 25 Runway length 4298 ft Runway width 148 ft
Runway elevation 502 ft Runway displaced threshold 0 ft Runway heading 243
Runway 17 Runway length 6998 ft Runway width 148 ft
Runway elevation 477 ft Runway displaced threshold 0 ft Runway heading 160
Runway 35 Runway length 6998 ft Runway width 148 ft
Runway elevation 460 ft Runway displaced threshold 0 ft Runway heading 340

 AIRPORT FREQUENCIES
Type APP Name APP Frequency 119.9 MHZ
Type ATIS Name ATIS Frequency 120.925 MHZ
Type GND Name GND Frequency 121.85 MHZ
Type TWR Name TWR Frequency 119.3 MHZ

 AIRPORT NEAR NAVIGATION AIDS
Type VOR-DME Name Cork Frequency 114600 KHZ